Time;durP1;ratioP1;P1;durP2;ratioP2;P2;SDS_P1;SDS_P2;PMS_P1;PMS_P2;Temp;Humidity;BMP_temperature;BMP_pressure;BME280_temperature;BME280_humidity;BME280_pressure;Samples;Min_cycle;Max_cycle;Signal;HPM_P1;HPM_P2
2023/12/17 00:01:08;;;;;;;5.45;3.20;;;11.70;91.00;;;;;;5057850;28;20029;-69
2023/12/17 00:03:34;;;;;;;3.22;2.25;;;11.80;91.00;;;;;;5043973;28;20044;-69
2023/12/17 00:05:59;;;;;;;3.60;2.15;;;11.80;91.00;;;;;;5055146;28;20093;-69
2023/12/17 00:08:25;;;;;;;3.85;2.35;;;11.80;90.90;;;;;;5048838;28;20524;-60
2023/12/17 00:10:52;;;;;;;5.43;2.42;;;11.80;90.90;;;;;;5048017;28;20044;-59
2023/12/17 00:13:18;;;;;;;4.07;2.30;;;11.90;90.90;;;;;;5044289;28;20030;-69
2023/12/17 00:15:45;;;;;;;3.15;1.98;;;11.80;90.80;;;;;;5047583;28;20021;-69
2023/12/17 00:18:12;;;;;;;3.42;2.35;;;11.90;90.80;;;;;;5046169;28;20352;-69
2023/12/17 00:20:38;;;;;;;7.10;2.78;;;11.90;90.70;;;;;;5042483;28;20465;-69
2023/12/17 00:23:04;;;;;;;4.95;2.60;;;11.90;90.70;;;;;;5056609;28;20360;-69
2023/12/17 00:25:33;;;;;;;2.63;1.92;;;11.80;90.70;;;;;;5045525;28;20060;-69
2023/12/17 00:27:59;;;;;;;2.50;1.80;;;11.90;90.70;;;;;;5045830;28;20028;-69
2023/12/17 00:30:24;;;;;;;3.88;1.70;;;11.80;90.70;;;;;;5049327;28;20037;-60
2023/12/17 00:32:50;;;;;;;3.78;1.98;;;11.80;90.60;;;;;;5050457;28;20040;-69
2023/12/17 00:35:16;;;;;;;3.65;1.73;;;11.80;90.60;;;;;;5053557;28;20407;-60
2023/12/17 00:37:42;;;;;;;3.15;1.67;;;11.80;90.60;;;;;;5047333;28;20037;-60
2023/12/17 00:40:09;;;;;;;1.92;1.60;;;11.80;90.50;;;;;;5048511;28;20021;-68
2023/12/17 00:42:34;;;;;;;4.80;1.98;;;11.80;90.50;;;;;;5049320;28;20033;-68
2023/12/17 00:45:00;;;;;;;4.22;1.98;;;11.80;90.50;;;;;;5054863;28;20060;-69
2023/12/17 00:47:26;;;;;;;2.67;1.42;;;11.80;90.70;;;;;;5053947;28;20111;-69
2023/12/17 00:49:52;;;;;;;1.30;1.20;;;11.80;90.40;;;;;;5050417;28;20027;-69
2023/12/17 00:52:20;;;;;;;4.03;2.42;;;11.80;90.40;;;;;;5057770;28;20128;-69
2023/12/17 00:54:46;;;;;;;2.60;1.73;;;11.80;90.20;;;;;;5048826;28;20021;-69
2023/12/17 00:57:12;;;;;;;3.58;1.80;;;11.80;90.30;;;;;;5051956;28;20044;-69
2023/12/17 00:59:38;;;;;;;2.58;1.70;;;11.80;90.30;;;;;;5048606;28;20079;-69
2023/12/17 01:02:04;;;;;;;3.45;1.80;;;11.80;90.30;;;;;;5051631;28;20712;-69
2023/12/17 01:04:29;;;;;;;5.10;2.03;;;11.80;90.20;;;;;;5058605;28;20029;-69
2023/12/17 01:06:55;;;;;;;2.33;1.75;;;11.80;90.10;;;;;;5053754;28;20429;-68
2023/12/17 01:09:21;;;;;;;2.08;1.48;;;11.80;90.10;;;;;;5031272;28;20091;-68
2023/12/17 01:11:47;;;;;;;2.78;1.75;;;11.80;90.20;;;;;;5044878;28;20053;-60
2023/12/17 01:14:13;;;;;;;2.22;1.73;;;11.80;90.10;;;;;;5039316;28;20392;-60
2023/12/17 01:16:39;;;;;;;2.97;1.58;;;11.80;90.00;;;;;;5055075;28;20036;-60
2023/12/17 01:19:05;;;;;;;3.20;1.88;;;11.80;90.10;;;;;;5045748;28;20044;-60
2023/12/17 01:21:31;;;;;;;2.60;1.35;;;11.80;90.00;;;;;;5042311;28;20057;-60
2023/12/17 01:23:58;;;;;;;2.42;1.50;;;11.80;90.00;;;;;;5054768;28;20020;-69
2023/12/17 01:26:26;;;;;;;1.77;1.30;;;11.80;90.00;;;;;;5049428;28;20041;-60
2023/12/17 01:28:52;;;;;;;3.33;2.15;;;11.80;90.10;;;;;;5041644;28;20564;-60
2023/12/17 01:31:18;;;;;;;4.25;2.17;;;11.80;90.00;;;;;;5038978;28;20025;-67
2023/12/17 01:33:44;;;;;;;1.52;1.20;;;11.80;90.00;;;;;;5041030;28;20055;-60
2023/12/17 01:36:10;;;;;;;2.45;1.50;;;11.80;90.00;;;;;;5043920;28;20035;-69
2023/12/17 01:38:36;;;;;;;3.00;1.90;;;11.80;89.90;;;;;;5047121;28;20037;-69
2023/12/17 01:41:02;;;;;;;1.63;1.13;;;11.80;89.80;;;;;;5042838;28;20045;-69
2023/12/17 01:43:28;;;;;;;3.15;2.00;;;11.80;89.80;;;;;;5044018;28;20040;-60
2023/12/17 01:45:54;;;;;;;2.75;1.85;;;11.80;89.80;;;;;;5042736;28;20029;-60
2023/12/17 01:48:24;;;;;;;3.13;1.80;;;11.80;89.80;;;;;;5043501;28;20054;-60
2023/12/17 01:50:50;;;;;;;3.97;1.80;;;11.90;89.70;;;;;;5043814;28;20021;-60
2023/12/17 01:53:17;;;;;;;4.13;2.35;;;11.80;89.60;;;;;;5042147;28;20166;-60
2023/12/17 01:55:45;;;;;;;3.28;1.05;;;11.80;89.70;;;;;;5037272;28;20029;-60
2023/12/17 01:58:12;;;;;;;1.50;1.40;;;11.80;89.60;;;;;;5040939;28;20225;-60
2023/12/17 02:00:38;;;;;;;3.97;2.00;;;11.80;89.60;;;;;;5049852;28;20025;-60
2023/12/17 02:03:04;;;;;;;4.55;1.92;;;11.90;89.50;;;;;;5045621;28;20029;-69
2023/12/17 02:05:34;;;;;;;3.97;1.90;;;11.80;89.40;;;;;;5051956;28;20043;-69
2023/12/17 02:08:01;;;;;;;2.45;1.50;;;11.80;89.40;;;;;;5042399;28;20052;-69
2023/12/17 02:10:27;;;;;;;2.38;1.50;;;11.80;89.30;;;;;;5044583;28;20217;-69
2023/12/17 02:12:53;;;;;;;4.10;1.60;;;11.80;89.20;;;;;;5039184;28;20046;-60
2023/12/17 02:15:19;;;;;;;3.10;1.83;;;11.80;89.10;;;;;;5047989;28;20154;-60
2023/12/17 02:17:45;;;;;;;2.33;1.33;;;11.80;89.00;;;;;;5042711;28;20505;-60
2023/12/17 02:20:12;;;;;;;1.38;1.15;;;11.80;89.00;;;;;;5046612;28;20035;-60
2023/12/17 02:22:38;;;;;;;1.77;1.33;;;11.80;89.00;;;;;;5048065;28;20552;-60
2023/12/17 02:25:05;;;;;;;4.03;1.40;;;11.80;89.00;;;;;;5046667;28;20036;-60
2023/12/17 02:27:32;;;;;;;1.38;1.20;;;11.80;89.00;;;;;;5051932;28;20021;-60
2023/12/17 02:29:58;;;;;;;2.33;1.35;;;11.90;88.90;;;;;;5051364;28;20419;-60
2023/12/17 02:32:24;;;;;;;3.05;1.85;;;11.90;88.90;;;;;;5050142;28;20025;-69
2023/12/17 02:34:50;;;;;;;2.67;1.63;;;11.90;88.80;;;;;;5047756;28;20041;-60
2023/12/17 02:37:17;;;;;;;3.55;1.58;;;11.90;89.20;;;;;;5056491;28;20113;-69
2023/12/17 02:39:42;;;;;;;3.05;1.83;;;11.90;88.70;;;;;;5035413;28;20491;-60
2023/12/17 02:42:08;;;;;;;1.75;1.42;;;11.90;88.60;;;;;;5052518;28;20039;-69
2023/12/17 02:44:34;;;;;;;1.95;1.27;;;11.90;88.50;;;;;;5041225;28;20044;-69
2023/12/17 02:47:00;;;;;;;3.63;1.30;;;11.90;88.40;;;;;;5052775;28;20496;-69
2023/12/17 02:49:27;;;;;;;2.30;1.55;;;11.80;88.40;;;;;;5056180;28;20032;-68
2023/12/17 02:51:53;;;;;;;2.85;1.33;;;11.90;88.20;;;;;;5050171;28;20063;-69
2023/12/17 02:54:19;;;;;;;1.35;1.15;;;11.90;88.10;;;;;;5049725;28;20039;-60
2023/12/17 02:56:46;;;;;;;2.85;1.65;;;11.90;88.00;;;;;;5032796;28;20041;-60
2023/12/17 02:59:13;;;;;;;1.25;0.95;;;11.90;87.80;;;;;;5044921;28;20071;-61
2023/12/17 03:01:43;;;;;;;1.92;1.45;;;11.90;87.90;;;;;;5058001;28;20083;-60
2023/12/17 03:04:10;;;;;;;2.08;1.20;;;11.90;87.60;;;;;;5055768;28;20462;-68
2023/12/17 03:06:37;;;;;;;2.75;1.65;;;11.90;87.60;;;;;;5055366;28;20115;-68
2023/12/17 03:09:03;;;;;;;3.22;1.65;;;11.80;87.40;;;;;;5052927;28;20041;-68
2023/12/17 03:11:28;;;;;;;3.05;1.48;;;11.80;87.40;;;;;;5056434;28;20044;-69
2023/12/17 03:13:54;;;;;;;4.05;1.63;;;11.80;87.50;;;;;;5056535;28;20025;-69
2023/12/17 03:16:20;;;;;;;5.40;1.80;;;11.80;87.50;;;;;;5057572;28;20534;-69
2023/12/17 03:18:46;;;;;;;3.72;2.35;;;11.80;87.60;;;;;;5047118;28;20029;-60
2023/12/17 03:21:12;;;;;;;4.25;2.03;;;11.80;87.70;;;;;;5057854;28;20059;-61
2023/12/17 03:23:38;;;;;;;3.08;2.03;;;11.80;87.60;;;;;;5059473;28;20390;-60
2023/12/17 03:26:04;;;;;;;2.97;1.60;;;11.80;87.60;;;;;;5059857;28;20032;-60
2023/12/17 03:28:30;;;;;;;2.55;1.70;;;11.80;87.70;;;;;;5055745;28;20056;-69
2023/12/17 03:30:55;;;;;;;3.58;1.88;;;11.80;87.60;;;;;;5037022;28;20540;-68
2023/12/17 03:33:22;;;;;;;2.33;1.42;;;11.80;87.70;;;;;;5050074;28;20026;-69
2023/12/17 03:35:48;;;;;;;3.53;2.28;;;11.80;87.70;;;;;;5040071;28;20048;-69
2023/12/17 03:38:14;;;;;;;3.00;2.08;;;11.80;87.70;;;;;;5046489;28;20029;-69
2023/12/17 03:40:40;;;;;;;4.85;2.60;;;11.80;87.80;;;;;;5043607;28;20034;-69
2023/12/17 03:43:07;;;;;;;3.05;1.80;;;11.80;87.80;;;;;;5051021;28;20075;-69
2023/12/17 03:45:33;;;;;;;2.90;2.30;;;11.80;87.90;;;;;;5050371;28;20120;-69
2023/12/17 03:47:59;;;;;;;5.10;2.45;;;11.80;87.90;;;;;;5054124;28;20505;-60
2023/12/17 03:50:25;;;;;;;4.45;1.98;;;11.90;87.90;;;;;;5051266;28;20494;-60
2023/12/17 03:52:52;;;;;;;3.88;2.08;;;11.80;88.00;;;;;;5050654;28;20503;-60
2023/12/17 03:55:18;;;;;;;2.88;1.38;;;11.90;88.10;;;;;;5048583;28;20021;-60
2023/12/17 03:57:45;;;;;;;2.58;1.63;;;11.90;88.10;;;;;;5052409;28;20046;-60
2023/12/17 04:00:12;;;;;;;2.60;1.75;;;11.80;88.10;;;;;;5050399;28;20093;-69
2023/12/17 04:02:38;;;;;;;2.60;1.95;;;11.90;88.20;;;;;;5044676;28;20045;-69
2023/12/17 04:05:04;;;;;;;2.08;1.10;;;11.90;88.00;;;;;;5041876;28;20026;-68
2023/12/17 04:07:30;;;;;;;2.58;1.45;;;11.90;87.90;;;;;;5055588;28;20467;-69
2023/12/17 04:10:03;;;;;;;2.95;2.00;;;11.90;87.80;;;;;;5046986;28;20495;-69
2023/12/17 04:12:29;;;;;;;3.83;2.20;;;11.90;87.70;;;;;;5055034;28;20444;-69
2023/12/17 04:14:55;;;;;;;3.60;2.10;;;11.90;87.90;;;;;;5045933;28;20033;-60
2023/12/17 04:17:21;;;;;;;3.88;1.27;;;11.90;87.70;;;;;;5047153;28;20530;-60
2023/12/17 04:19:47;;;;;;;4.63;1.30;;;11.80;87.70;;;;;;5052037;28;20036;-60
2023/12/17 04:22:13;;;;;;;3.67;1.45;;;11.80;87.70;;;;;;5049188;28;20036;-61
2023/12/17 04:24:39;;;;;;;2.45;1.70;;;11.80;87.80;;;;;;5051773;28;20029;-60
2023/12/17 04:27:06;;;;;;;2.60;1.23;;;11.70;87.60;;;;;;5045698;28;20539;-60
2023/12/17 04:29:32;;;;;;;3.35;1.17;;;11.70;87.70;;;;;;5048738;28;20114;-69
2023/12/17 04:31:57;;;;;;;3.03;1.48;;;11.70;87.80;;;;;;5050417;28;20079;-68
2023/12/17 04:34:23;;;;;;;4.10;1.90;;;11.70;87.80;;;;;;5051558;28;20029;-68
2023/12/17 04:36:49;;;;;;;2.00;1.25;;;11.80;87.90;;;;;;5051227;28;20062;-69
2023/12/17 04:39:15;;;;;;;4.32;1.40;;;11.70;88.00;;;;;;5059915;28;20021;-60
2023/12/17 04:41:41;;;;;;;2.42;1.55;;;11.70;88.10;;;;;;5047711;28;20040;-60
2023/12/17 04:44:07;;;;;;;2.97;1.77;;;11.70;88.20;;;;;;5060505;28;20033;-60
2023/12/17 04:46:34;;;;;;;1.73;1.08;;;11.70;88.20;;;;;;5047654;28;20036;-61
2023/12/17 04:49:00;;;;;;;2.45;1.15;;;11.70;88.30;;;;;;5053193;28;20033;-60
2023/12/17 04:51:26;;;;;;;3.65;1.80;;;11.70;88.50;;;;;;5048606;28;20120;-60
2023/12/17 04:53:52;;;;;;;3.85;2.33;;;11.60;88.40;;;;;;5052742;28;20100;-69
2023/12/17 04:56:21;;;;;;;5.10;2.22;;;11.60;88.50;;;;;;5051564;28;20024;-69
2023/12/17 04:58:47;;;;;;;3.83;2.30;;;11.60;88.60;;;;;;5052439;28;20549;-69
2023/12/17 05:01:31;;;;;;;2.42;1.90;;;11.60;88.70;;;;;;5053929;28;20135;-62
2023/12/17 05:03:57;;;;;;;3.05;1.88;;;11.60;88.80;;;;;;5031303;28;20048;-60
2023/12/17 05:06:23;;;;;;;3.28;1.83;;;11.50;89.00;;;;;;5054212;28;20470;-69
2023/12/17 05:08:48;;;;;;;4.63;1.70;;;11.50;89.00;;;;;;5044445;28;20398;-60
2023/12/17 05:11:14;;;;;;;3.22;1.50;;;11.50;89.00;;;;;;5053622;28;20082;-69
2023/12/17 05:13:40;;;;;;;3.65;1.80;;;11.50;89.00;;;;;;5052459;28;20057;-60
2023/12/17 05:16:06;;;;;;;4.72;1.90;;;11.60;89.00;;;;;;5051263;28;20021;-60
2023/12/17 05:18:32;;;;;;;5.07;2.70;;;11.60;88.90;;;;;;5050233;28;20122;-60
2023/12/17 05:20:58;;;;;;;3.70;1.92;;;11.60;89.40;;;;;;5058255;28;20119;-60
2023/12/17 05:23:23;;;;;;;4.70;2.88;;;11.60;88.90;;;;;;5047977;28;20369;-60
2023/12/17 05:25:49;;;;;;;5.47;2.53;;;11.60;89.00;;;;;;5050039;28;20190;-60
2023/12/17 05:28:14;;;;;;;3.67;2.53;;;11.60;89.00;;;;;;5046992;28;20067;-60
2023/12/17 05:30:40;;;;;;;5.93;2.03;;;11.60;89.00;;;;;;5045494;28;20392;-60
2023/12/17 05:33:07;;;;;;;4.03;2.78;;;11.60;89.10;;;;;;5055959;28;20035;-68
2023/12/17 05:35:32;;;;;;;5.05;2.65;;;11.60;89.10;;;;;;5050292;28;20040;-69
2023/12/17 05:37:58;;;;;;;5.93;2.80;;;11.60;89.00;;;;;;5049323;28;20439;-68
2023/12/17 05:40:24;;;;;;;2.97;1.95;;;11.60;89.10;;;;;;5042121;28;20128;-68
2023/12/17 05:42:49;;;;;;;4.43;3.00;;;11.60;89.10;;;;;;5046153;28;20377;-69
2023/12/17 05:45:15;;;;;;;9.75;3.65;;;11.60;89.20;;;;;;5054081;28;20415;-69
2023/12/17 05:47:41;;;;;;;5.00;3.08;;;11.60;89.30;;;;;;5048822;28;20025;-68
2023/12/17 05:50:08;;;;;;;6.45;2.83;;;11.60;89.30;;;;;;5048051;28;20024;-69
2023/12/17 05:52:34;;;;;;;6.57;3.72;;;11.60;89.20;;;;;;5050499;28;20044;-69
2023/12/17 05:55:00;;;;;;;11.30;5.20;;;11.60;89.20;;;;;;5050887;28;20028;-60
2023/12/17 05:57:26;;;;;;;7.88;4.57;;;11.60;89.30;;;;;;5048767;28;20040;-60
2023/12/17 05:59:51;;;;;;;8.93;4.10;;;11.60;89.50;;;;;;5044732;28;20036;-68
2023/12/17 06:02:17;;;;;;;9.52;4.13;;;11.60;89.60;;;;;;5052625;28;20041;-69
2023/12/17 06:04:43;;;;;;;8.20;4.82;;;11.60;89.60;;;;;;5050091;28;20083;-69
2023/12/17 06:07:08;;;;;;;8.57;4.15;;;11.60;89.50;;;;;;5044419;28;20041;-69
2023/12/17 06:09:34;;;;;;;7.80;4.63;;;11.60;89.50;;;;;;5050076;28;20037;-69
2023/12/17 06:11:59;;;;;;;8.63;4.15;;;11.60;89.40;;;;;;5052527;28;20136;-68
2023/12/17 06:14:25;;;;;;;13.80;4.60;;;11.60;89.30;;;;;;5048632;28;20505;-68
2023/12/17 06:16:51;;;;;;;8.75;4.85;;;11.60;89.20;;;;;;5044189;28;20109;-69
2023/12/17 06:19:16;;;;;;;7.68;5.03;;;11.60;89.00;;;;;;5052919;28;20021;-68
2023/12/17 06:21:42;;;;;;;8.80;5.10;;;11.60;88.90;;;;;;5056807;28;20060;-69
2023/12/17 06:24:08;;;;;;;10.50;3.97;;;11.60;88.70;;;;;;5058525;28;20032;-69
2023/12/17 06:26:36;;;;;;;7.90;4.72;;;11.60;88.70;;;;;;5054994;28;20479;-68
2023/12/17 06:29:02;;;;;;;11.88;4.75;;;11.60;88.60;;;;;;5046315;28;20037;-68
2023/12/17 06:31:28;;;;;;;15.77;4.10;;;11.60;88.60;;;;;;5051684;28;20484;-60
2023/12/17 06:33:54;;;;;;;8.45;5.43;;;11.60;88.50;;;;;;5046863;28;20036;-69
2023/12/17 06:36:20;;;;;;;8.75;4.45;;;11.60;88.40;;;;;;5050626;28;20119;-69
2023/12/17 06:38:46;;;;;;;7.30;4.40;;;11.60;88.30;;;;;;5051699;28;20033;-69
2023/12/17 06:41:12;;;;;;;11.70;4.95;;;11.60;88.40;;;;;;5043334;28;20039;-60
2023/12/17 06:43:39;;;;;;;6.00;2.95;;;11.60;88.40;;;;;;5049023;28;20037;-60
2023/12/17 06:46:06;;;;;;;7.63;3.97;;;11.60;88.40;;;;;;5053313;28;20029;-60
2023/12/17 06:48:33;;;;;;;7.35;4.05;;;11.60;88.30;;;;;;5053941;28;20045;-60
2023/12/17 06:51:00;;;;;;;9.93;4.00;;;11.60;88.90;;;;;;5049234;28;20112;-60
2023/12/17 06:53:26;;;;;;;9.27;4.18;;;11.60;88.30;;;;;;5056925;28;20040;-69
2023/12/17 06:55:52;;;;;;;11.18;5.15;;;11.60;88.20;;;;;;5060342;28;20078;-60
2023/12/17 06:58:17;;;;;;;6.88;4.03;;;11.60;88.00;;;;;;5056959;28;20614;-68
2023/12/17 07:00:43;;;;;;;6.35;4.05;;;11.60;88.20;;;;;;5060515;28;20033;-68
2023/12/17 07:03:09;;;;;;;6.60;3.92;;;11.60;88.10;;;;;;5056331;28;20053;-68
2023/12/17 07:05:34;;;;;;;7.53;4.43;;;11.60;88.20;;;;;;5058363;28;20037;-60
2023/12/17 07:08:00;;;;;;;8.82;4.22;;;11.60;88.20;;;;;;5058653;28;20021;-60
2023/12/17 07:10:26;;;;;;;6.97;4.00;;;11.60;88.10;;;;;;5049136;28;20033;-60
2023/12/17 07:12:51;;;;;;;7.75;3.80;;;11.50;87.80;;;;;;5061715;28;20059;-60
2023/12/17 07:15:18;;;;;;;7.25;4.03;;;11.50;87.90;;;;;;5057711;28;20376;-60
2023/12/17 07:17:44;;;;;;;5.60;3.35;;;11.50;87.90;;;;;;5056295;28;20040;-60
2023/12/17 07:20:10;;;;;;;5.93;3.90;;;11.50;87.80;;;;;;5055766;28;20048;-60
2023/12/17 07:22:36;;;;;;;5.40;3.10;;;11.50;87.80;;;;;;5054125;28;20036;-60
2023/12/17 07:25:02;;;;;;;9.63;3.90;;;11.50;87.70;;;;;;5054068;28;20037;-60
2023/12/17 07:27:28;;;;;;;8.80;3.17;;;11.60;87.70;;;;;;5053460;28;20036;-59
2023/12/17 07:29:54;;;;;;;5.95;2.90;;;11.50;87.60;;;;;;5053313;28;20029;-59
2023/12/17 07:32:20;;;;;;;6.80;3.60;;;11.50;87.60;;;;;;5050090;28;20076;-59
2023/12/17 07:34:45;;;;;;;12.15;3.33;;;11.50;87.60;;;;;;5047998;28;20029;-67
2023/12/17 07:37:11;;;;;;;5.20;3.03;;;11.50;87.70;;;;;;5042837;28;20112;-59
2023/12/17 07:39:37;;;;;;;5.80;3.15;;;11.50;87.70;;;;;;5054417;28;20025;-59
2023/12/17 07:42:03;;;;;;;5.40;3.20;;;11.60;87.70;;;;;;5055245;28;20063;-68
2023/12/17 07:44:30;;;;;;;9.85;4.55;;;11.60;87.60;;;;;;5055900;28;20072;-67
2023/12/17 07:46:56;;;;;;;7.38;4.32;;;11.60;87.50;;;;;;5056148;28;20039;-67
2023/12/17 07:49:22;;;;;;;8.60;4.35;;;11.60;87.50;;;;;;5057155;28;20031;-67
2023/12/17 07:51:48;;;;;;;8.27;4.32;;;11.60;87.60;;;;;;5061124;28;20084;-67
2023/12/17 07:54:14;;;;;;;6.88;4.60;;;11.60;87.50;;;;;;5046172;28;20033;-67
2023/12/17 07:56:39;;;;;;;11.18;5.13;;;11.60;87.50;;;;;;5050641;28;20033;-67
2023/12/17 07:59:05;;;;;;;6.60;3.67;;;11.50;87.50;;;;;;5049679;28;20043;-67
2023/12/17 08:01:32;;;;;;;9.32;4.38;;;11.60;87.60;;;;;;5054650;28;20400;-67
2023/12/17 08:03:57;;;;;;;9.25;4.55;;;11.60;87.50;;;;;;5055139;28;20033;-67
2023/12/17 08:06:24;;;;;;;10.75;4.65;;;11.70;87.50;;;;;;5054537;28;20036;-67
2023/12/17 08:08:50;;;;;;;9.85;4.63;;;11.70;87.40;;;;;;5051511;28;20078;-67
2023/12/17 08:11:16;;;;;;;13.75;5.35;;;11.60;87.50;;;;;;5048336;28;20405;-67
2023/12/17 08:13:43;;;;;;;11.25;6.07;;;11.60;87.60;;;;;;5050486;28;20037;-67
2023/12/17 08:16:09;;;;;;;17.98;7.28;;;11.60;87.60;;;;;;5045848;28;20083;-67
2023/12/17 08:18:34;;;;;;;10.18;5.97;;;11.50;87.80;;;;;;5048875;28;20041;-69
2023/12/17 08:21:01;;;;;;;10.65;6.13;;;11.50;88.00;;;;;;5050990;28;20035;-67
2023/12/17 08:23:27;;;;;;;15.05;6.85;;;11.50;88.10;;;;;;5047068;28;20021;-67
2023/12/17 08:25:52;;;;;;;13.88;5.95;;;11.40;88.10;;;;;;5051782;28;20088;-67
2023/12/17 08:28:21;;;;;;;12.45;6.70;;;11.40;88.10;;;;;;5052574;28;20021;-67
2023/12/17 08:30:50;;;;;;;10.80;6.18;;;11.40;88.10;;;;;;5049644;28;20026;-58
2023/12/17 08:33:16;;;;;;;11.55;6.53;;;11.30;88.00;;;;;;5052779;28;20082;-59
2023/12/17 08:35:43;;;;;;;13.20;6.28;;;11.20;88.00;;;;;;5042682;28;20021;-59
2023/12/17 08:38:09;;;;;;;14.52;5.60;;;11.20;88.10;;;;;;5047392;28;20091;-59
2023/12/17 08:40:37;;;;;;;9.98;5.43;;;11.30;88.10;;;;;;5045151;28;20476;-58
2023/12/17 08:43:09;;;;;;;13.35;5.85;;;11.30;87.90;;;;;;5046430;28;20025;-59
2023/12/17 08:45:35;;;;;;;;;;;11.30;87.80;;;;;;5056146;28;20024;-59
2023/12/17 08:48:01;;;;;;;16.30;6.95;;;11.30;87.60;;;;;;5050217;28;19942;-67
2023/12/17 08:50:27;;;;;;;11.65;5.90;;;11.20;87.60;;;;;;5042251;28;20143;-59
2023/12/17 08:52:53;;;;;;;13.55;6.43;;;11.30;87.30;;;;;;5050058;28;20163;-59
2023/12/17 08:55:21;;;;;;;10.73;5.03;;;11.30;87.20;;;;;;5051833;28;20107;-59
2023/12/17 08:57:47;;;;;;;12.27;6.22;;;11.30;87.10;;;;;;5047578;28;20086;-59
2023/12/17 09:00:13;;;;;;;12.00;5.68;;;11.30;86.80;;;;;;5044516;28;20032;-59
2023/12/17 09:02:39;;;;;;;8.75;5.03;;;11.30;86.60;;;;;;5052138;28;20449;-59
2023/12/17 09:05:06;;;;;;;12.02;5.13;;;11.30;86.80;;;;;;5051210;28;20108;-59
2023/12/17 09:07:32;;;;;;;10.00;5.38;;;11.30;86.70;;;;;;5050664;28;20033;-63
2023/12/17 09:09:58;;;;;;;10.70;4.82;;;11.30;86.50;;;;;;5043818;28;20037;-70
2023/12/17 09:12:23;;;;;;;7.82;4.70;;;11.30;86.50;;;;;;5057811;28;20045;-72
2023/12/17 09:14:49;;;;;;;9.05;5.28;;;11.30;86.60;;;;;;5043138;28;20115;-71
2023/12/17 09:17:15;;;;;;;12.38;5.35;;;11.30;86.70;;;;;;5049697;28;20021;-70
2023/12/17 09:19:41;;;;;;;7.90;4.95;;;11.30;86.60;;;;;;5044634;28;20048;-70
2023/12/17 09:22:06;;;;;;;11.75;6.00;;;11.20;86.50;;;;;;5053867;28;20040;-72
2023/12/17 09:24:32;;;;;;;12.30;5.13;;;11.20;86.80;;;;;;5044434;28;20101;-71
2023/12/17 09:26:59;;;;;;;7.93;5.05;;;11.20;86.90;;;;;;5051545;28;20402;-64
2023/12/17 09:29:25;;;;;;;7.72;4.05;;;11.20;86.80;;;;;;5057661;28;20031;-63
2023/12/17 09:31:50;;;;;;;10.50;4.70;;;11.20;86.80;;;;;;5070100;28;20037;-62
2023/12/17 09:34:16;;;;;;;10.82;4.75;;;11.20;86.80;;;;;;5051067;28;20026;-69
2023/12/17 09:36:43;;;;;;;7.15;4.70;;;11.20;86.90;;;;;;5045527;28;20037;-73
2023/12/17 09:39:08;;;;;;;8.00;4.65;;;11.20;86.90;;;;;;5058650;28;20035;-72
2023/12/17 09:41:34;;;;;;;7.50;5.00;;;11.20;86.80;;;;;;5049355;28;20448;-72
2023/12/17 09:44:00;;;;;;;13.48;5.85;;;11.10;86.80;;;;;;5048631;28;20616;-72
2023/12/17 09:46:27;;;;;;;7.55;4.03;;;11.10;87.00;;;;;;5055167;28;20028;-63
2023/12/17 09:48:52;;;;;;;8.20;4.82;;;11.10;87.10;;;;;;5050982;28;20025;-65
2023/12/17 09:51:18;;;;;;;8.15;4.65;;;11.10;87.10;;;;;;5041309;28;20087;-60
2023/12/17 09:53:44;;;;;;;7.35;4.35;;;11.00;87.00;;;;;;5048720;28;20025;-60
2023/12/17 09:56:13;;;;;;;8.02;3.90;;;11.10;87.20;;;;;;5043665;28;20500;-74
2023/12/17 09:58:39;;;;;;;6.07;3.63;;;11.10;87.10;;;;;;5047484;28;20060;-73
2023/12/17 10:01:04;;;;;;;7.03;3.60;;;11.10;87.10;;;;;;5051700;28;20452;-63
2023/12/17 10:03:31;;;;;;;7.70;3.53;;;11.10;87.00;;;;;;5055060;28;20036;-61
2023/12/17 10:05:57;;;;;;;7.32;3.33;;;11.10;87.10;;;;;;5043928;28;20029;-62
2023/12/17 10:08:23;;;;;;;7.43;3.20;;;11.10;87.00;;;;;;5052969;28;20041;-62
2023/12/17 10:10:49;;;;;;;5.78;3.97;;;11.10;87.10;;;;;;5049611;28;20546;-74
2023/12/17 10:13:21;;;;;;;5.78;3.55;;;11.10;86.90;;;;;;5047192;28;20037;-72
2023/12/17 10:15:52;;;;;;;7.47;3.85;;;11.10;87.00;;;;;;5049367;28;20024;-62
2023/12/17 10:18:18;;;;;;;5.78;3.67;;;11.10;87.00;;;;;;5049303;28;20024;-62
2023/12/17 10:20:45;;;;;;;8.25;3.15;;;11.20;87.10;;;;;;5047339;28;20021;-70
2023/12/17 10:23:11;;;;;;;7.90;3.50;;;11.10;86.90;;;;;;5054080;28;20048;-70
2023/12/17 10:25:37;;;;;;;7.40;3.40;;;11.10;87.10;;;;;;5049237;28;20021;-61
2023/12/17 10:28:03;;;;;;;8.20;4.43;;;11.10;87.10;;;;;;5052544;28;20059;-60
2023/12/17 10:30:33;;;;;;;4.45;3.00;;;11.10;87.20;;;;;;5049526;28;20057;-60
2023/12/17 10:33:00;;;;;;;7.90;4.00;;;11.10;87.20;;;;;;5048026;28;20108;-68
2023/12/17 10:35:27;;;;;;;6.95;3.30;;;11.00;87.10;;;;;;5033081;28;20037;-67
2023/12/17 10:38:05;;;;;;;9.10;4.03;;;11.00;87.30;;;;;;5040866;28;20055;-66
2023/12/17 10:40:33;;;;;;;6.20;3.47;;;11.00;87.20;;;;;;5039891;28;20124;-67
2023/12/17 10:42:59;;;;;;;6.78;3.75;;;11.00;87.20;;;;;;5045570;28;20065;-68
2023/12/17 10:45:25;;;;;;;8.50;3.13;;;11.00;87.10;;;;;;5053014;28;20115;-66
2023/12/17 10:47:56;;;;;;;4.65;2.88;;;10.90;87.00;;;;;;5053077;28;20024;-67
2023/12/17 10:50:22;;;;;;;6.88;3.10;;;10.90;87.10;;;;;;5041509;28;20060;-68
2023/12/17 10:52:49;;;;;;;8.25;3.75;;;10.80;87.40;;;;;;5049061;28;20455;-61
2023/12/17 10:55:15;;;;;;;6.20;3.45;;;10.90;87.50;;;;;;5052954;28;20061;-61
2023/12/17 10:58:05;;;;;;;4.70;2.60;;;10.80;87.50;;;;;;5044870;28;20082;-61
2023/12/17 11:00:33;;;;;;;4.72;2.42;;;10.80;87.40;;;;;;5041777;28;20396;-60
2023/12/17 11:03:02;;;;;;;4.35;2.38;;;10.70;87.30;;;;;;5044214;28;20025;-60
2023/12/17 11:05:28;;;;;;;4.55;2.67;;;10.70;87.20;;;;;;5053106;28;20456;-68
2023/12/17 11:07:54;;;;;;;5.82;2.58;;;10.70;87.30;;;;;;5054618;28;20146;-67
2023/12/17 11:10:20;;;;;;;8.43;2.83;;;10.60;87.10;;;;;;5038080;28;20029;-67
2023/12/17 11:12:46;;;;;;;5.25;2.38;;;10.60;87.00;;;;;;5039384;28;20076;-67
2023/12/17 11:15:13;;;;;;;5.18;2.92;;;10.70;87.00;;;;;;5046194;28;20206;-67
2023/12/17 11:17:39;;;;;;;4.32;2.63;;;10.60;86.80;;;;;;5045754;28;20035;-67
2023/12/17 11:20:06;;;;;;;5.78;3.22;;;10.60;86.80;;;;;;5047711;28;20018;-67
2023/12/17 11:22:37;;;;;;;7.07;3.53;;;10.60;86.80;;;;;;5042903;28;20037;-67
2023/12/17 11:25:04;;;;;;;6.57;3.22;;;10.60;86.80;;;;;;5046429;28;20108;-67
2023/12/17 11:27:31;;;;;;;4.97;2.80;;;10.60;86.80;;;;;;5048183;28;20059;-67
2023/12/17 11:29:57;;;;;;;7.45;4.13;;;10.50;86.80;;;;;;5059973;28;20179;-67
2023/12/17 11:32:27;;;;;;;6.80;3.60;;;10.50;87.00;;;;;;5046079;28;20119;-67
2023/12/17 11:34:55;;;;;;;6.63;3.72;;;10.50;87.10;;;;;;5046047;28;20044;-67
2023/12/17 11:37:22;;;;;;;6.55;3.67;;;10.50;87.20;;;;;;5052267;28;20183;-60
2023/12/17 11:39:49;;;;;;;6.55;3.70;;;10.60;87.30;;;;;;5041032;28;20036;-67
2023/12/17 11:42:17;;;;;;;10.88;4.15;;;10.70;87.20;;;;;;5051339;28;20028;-67
2023/12/17 11:44:47;;;;;;;6.25;3.65;;;10.70;86.80;;;;;;5053020;28;20037;-60
2023/12/17 11:47:13;;;;;;;7.63;4.03;;;10.80;86.60;;;;;;5053334;28;20033;-67
2023/12/17 11:49:40;;;;;;;10.13;4.70;;;10.80;86.20;;;;;;5043817;28;20071;-60
2023/12/17 11:52:10;;;;;;;7.95;4.60;;;10.80;86.30;;;;;;5051751;28;20021;-61
2023/12/17 11:54:36;;;;;;;6.90;3.45;;;10.90;86.40;;;;;;5054205;28;20112;-67
2023/12/17 11:57:02;;;;;;;6.53;3.42;;;10.90;86.20;;;;;;5052566;28;20174;-60
2023/12/17 11:59:34;;;;;;;7.30;4.28;;;11.00;85.90;;;;;;5047825;28;20024;-67
2023/12/17 12:02:01;;;;;;;8.88;4.35;;;11.00;85.70;;;;;;5050170;28;20033;-67
2023/12/17 12:04:27;;;;;;;7.07;4.05;;;11.00;85.60;;;;;;5047908;28;20021;-67
2023/12/17 12:06:54;;;;;;;8.80;4.38;;;11.10;85.60;;;;;;5037918;28;20488;-67
2023/12/17 12:09:20;;;;;;;8.80;4.32;;;11.20;85.50;;;;;;5043707;28;20025;-67
2023/12/17 12:11:45;;;;;;;7.88;4.13;;;11.50;85.30;;;;;;5055875;28;20048;-67
2023/12/17 12:14:11;;;;;;;9.68;4.10;;;11.60;83.80;;;;;;5052323;28;20283;-67
2023/12/17 12:16:43;;;;;;;9.43;5.05;;;11.70;83.60;;;;;;5055678;28;20030;-67
2023/12/17 12:19:09;;;;;;;9.73;4.78;;;11.90;83.90;;;;;;5055463;28;20028;-67
2023/12/17 12:21:35;;;;;;;8.55;4.93;;;12.10;82.30;;;;;;5049959;28;20040;-67
2023/12/17 12:24:01;;;;;;;8.10;4.70;;;12.40;81.10;;;;;;5056323;28;20033;-67
2023/12/17 12:26:27;;;;;;;11.85;6.03;;;12.50;80.60;;;;;;5052702;28;20028;-67
2023/12/17 12:29:06;;;;;;;7.03;4.43;;;12.80;79.70;;;;;;5047006;28;20750;-60
2023/12/17 12:31:32;;;;;;;10.48;3.72;;;13.00;78.80;;;;;;5058915;28;20503;-61
2023/12/17 12:34:04;;;;;;;10.05;5.13;;;13.20;78.90;;;;;;5044445;28;20029;-60
2023/12/17 12:36:46;;;;;;;8.40;4.33;;;14.10;77.00;;;;;;5050089;28;20025;-61
2023/12/17 12:39:13;;;;;;;8.60;5.20;;;15.00;74.50;;;;;;5043973;28;20037;-67
2023/12/17 12:41:46;;;;;;;10.55;4.97;;;15.60;72.00;;;;;;5041399;28;20437;-67